createdAt,value
2019-06-08T00:00:40.259Z,16.58
2019-06-08T00:03:08.471Z,16.55
2019-06-08T00:05:36.718Z,16.51
2019-06-08T00:08:05.081Z,16.46
2019-06-08T00:10:33.297Z,16.41
2019-06-08T00:13:01.527Z,16.38
2019-06-08T00:15:29.721Z,16.38
2019-06-08T00:17:59.441Z,16.38
2019-06-08T00:20:27.728Z,16.37
2019-06-08T00:22:55.968Z,16.36
2019-06-08T00:25:24.305Z,16.29
2019-06-08T00:27:52.468Z,16.24
2019-06-08T00:30:20.841Z,16.23
2019-06-08T00:32:49.052Z,16.20
2019-06-08T00:35:18.569Z,16.17
2019-06-08T00:37:46.849Z,16.15
2019-06-08T00:40:15.065Z,16.12
2019-06-08T00:42:43.278Z,16.09
2019-06-08T00:45:11.534Z,16.09
2019-06-08T00:47:47.380Z,16.07
2019-06-08T00:50:09.705Z,16.08
2019-06-08T00:52:37.918Z,16.08
2019-06-08T00:55:06.315Z,16.08
2019-06-08T00:57:34.535Z,16.07
2019-06-08T01:00:10.247Z,16.06
2019-06-08T01:02:34.714Z,16.03
2019-06-08T01:05:02.941Z,15.99
2019-06-08T01:07:31.302Z,15.96
2019-06-08T01:09:59.513Z,15.95
2019-06-08T01:12:28.991Z,15.95
2019-06-08T01:14:57.325Z,15.96
2019-06-08T01:17:25.541Z,15.96
2019-06-08T01:19:53.745Z,15.99
2019-06-08T01:22:23.609Z,16.03
2019-06-08T01:24:51.941Z,16.03
2019-06-08T01:27:20.185Z,16.03
2019-06-08T01:29:48.437Z,16.05
2019-06-08T01:32:16.636Z,16.05
2019-06-08T01:34:44.841Z,16.04
2019-06-08T01:37:13.059Z,16.03
2019-06-08T01:39:41.285Z,16.02
2019-06-08T01:42:09.515Z,15.99
2019-06-08T01:44:37.733Z,15.98
2019-06-08T01:47:05.930Z,15.97
2019-06-08T01:49:34.160Z,15.98
2019-06-08T01:52:02.463Z,15.97
2019-06-08T01:54:31.554Z,15.97
2019-06-08T01:56:59.879Z,15.96
2019-06-08T01:59:29.508Z,15.93
2019-06-08T02:01:57.880Z,15.92
2019-06-08T02:04:26.105Z,15.92
2019-06-08T02:06:54.314Z,15.91
2019-06-08T02:09:22.524Z,15.89
2019-06-08T02:11:50.742Z,15.84
2019-06-08T02:14:19.008Z,15.83
2019-06-08T02:16:47.226Z,15.84
2019-06-08T02:19:15.523Z,15.84
2019-06-08T02:21:43.720Z,15.84
2019-06-08T02:24:11.968Z,15.82
2019-06-08T02:26:40.229Z,15.83
2019-06-08T02:29:08.465Z,15.80
2019-06-08T02:31:37.723Z,15.77
2019-06-08T02:34:06.205Z,15.77
2019-06-08T02:36:35.914Z,15.76
2019-06-08T02:39:06.347Z,15.76
2019-06-08T02:41:35.312Z,15.73
2019-06-08T02:44:03.575Z,15.71
2019-06-08T02:46:33.356Z,15.70
2019-06-08T02:49:04.438Z,15.68
2019-06-08T02:51:33.825Z,15.65
2019-06-08T02:54:02.193Z,15.64
2019-06-08T02:56:31.908Z,15.62
2019-06-08T02:59:00.285Z,15.63
2019-06-08T03:01:29.534Z,15.62
2019-06-08T03:03:57.678Z,15.60
2019-06-08T03:06:25.887Z,15.59
2019-06-08T03:08:54.123Z,15.57
2019-06-08T03:11:22.353Z,15.55
2019-06-08T03:13:50.564Z,15.54
2019-06-08T03:16:18.779Z,15.52
2019-06-08T03:18:46.984Z,15.50
2019-06-08T03:21:15.228Z,15.47
2019-06-08T03:23:43.653Z,15.47
2019-06-08T03:26:11.870Z,15.45
2019-06-08T03:28:42.186Z,15.46
2019-06-08T03:31:10.132Z,15.48
2019-06-08T03:33:46.241Z,15.49
2019-06-08T03:36:08.274Z,15.51
2019-06-08T03:38:37.649Z,15.51
2019-06-08T03:41:06.106Z,15.52
2019-06-08T03:43:35.333Z,15.55
2019-06-08T03:46:04.098Z,15.60
2019-06-08T03:48:32.305Z,15.63
2019-06-08T03:51:00.600Z,15.69
2019-06-08T03:53:28.748Z,15.76
2019-06-08T03:55:56.966Z,15.81
2019-06-08T03:58:25.172Z,15.85
2019-06-08T04:00:53.405Z,15.92
2019-06-08T04:03:21.614Z,15.99
2019-06-08T04:05:50.128Z,15.92
2019-06-08T04:08:18.429Z,16.16
2019-06-08T04:10:46.999Z,16.23
2019-06-08T04:13:15.246Z,16.24
2019-06-08T04:15:44.672Z,16.19
2019-06-08T04:18:13.415Z,16.16
2019-06-08T04:20:43.594Z,16.19
2019-06-08T04:23:11.560Z,16.24
2019-06-08T04:25:40.567Z,16.46
2019-06-08T04:28:09.954Z,17.03
2019-06-08T04:30:38.674Z,16.98
2019-06-08T04:33:07.038Z,16.80
2019-06-08T04:35:35.268Z,16.89
2019-06-08T04:38:03.519Z,17.04
2019-06-08T04:40:31.721Z,17.67
2019-06-08T04:42:59.967Z,17.66
2019-06-08T04:45:28.320Z,19.13
2019-06-08T04:47:56.584Z,20.94
2019-06-08T04:50:24.836Z,21.19
2019-06-08T04:52:53.037Z,21.06
2019-06-08T04:55:21.244Z,21.27
2019-06-08T04:57:50.849Z,21.22
2019-06-08T05:00:19.247Z,20.57
2019-06-08T05:02:49.317Z,20.78
2019-06-08T05:05:17.489Z,21.18
2019-06-08T05:07:46.432Z,21.96
2019-06-08T05:10:15.637Z,22.38
2019-06-08T05:12:45.439Z,22.29
2019-06-08T05:15:13.841Z,21.45
2019-06-08T05:17:43.230Z,20.27
2019-06-08T05:20:11.542Z,20.80
2019-06-08T05:22:41.309Z,22.07
2019-06-08T05:25:09.656Z,23.36
2019-06-08T05:27:39.267Z,23.94
2019-06-08T05:30:08.746Z,23.44
2019-06-08T05:32:37.245Z,22.78
2019-06-08T05:35:06.290Z,21.60
2019-06-08T05:37:34.499Z,20.49
2019-06-08T05:40:02.698Z,19.65
2019-06-08T05:42:30.921Z,19.04
2019-06-08T05:44:59.132Z,18.63
2019-06-08T05:47:27.333Z,18.36
2019-06-08T05:49:55.573Z,18.18
2019-06-08T05:52:23.766Z,18.03
2019-06-08T05:54:51.977Z,18.04
2019-06-08T05:57:20.193Z,18.12
2019-06-08T05:59:48.424Z,18.26
2019-06-08T06:02:16.612Z,18.30
2019-06-08T06:04:44.823Z,18.24
2019-06-08T06:07:13.030Z,18.12
2019-06-08T06:09:42.748Z,18.06
2019-06-08T06:12:11.165Z,18.06
2019-06-08T06:14:40.657Z,18.01
2019-06-08T06:17:08.928Z,17.96
2019-06-08T06:19:37.137Z,18.04
2019-06-08T06:22:05.647Z,18.24
2019-06-08T06:24:33.816Z,18.34
2019-06-08T06:27:02.018Z,18.43
2019-06-08T06:29:30.262Z,18.29
2019-06-08T06:31:58.464Z,18.22
2019-06-08T06:34:26.668Z,18.29
2019-06-08T06:36:57.351Z,18.31
2019-06-08T06:39:24.990Z,18.32
2019-06-08T06:41:53.623Z,18.35
2019-06-08T06:44:22.079Z,18.35
2019-06-08T06:46:50.276Z,18.34
2019-06-08T06:49:18.491Z,18.33
2019-06-08T06:51:46.728Z,18.55
2019-06-08T06:54:14.954Z,18.93
2019-06-08T06:56:43.183Z,19.21
2019-06-08T06:59:11.661Z,19.37
2019-06-08T07:01:39.869Z,19.69
2019-06-08T07:04:08.352Z,20.04
2019-06-08T07:06:36.567Z,20.29
2019-06-08T07:09:06.352Z,20.48
2019-06-08T07:11:35.004Z,20.57
2019-06-08T07:14:04.021Z,20.50
2019-06-08T07:16:32.243Z,20.43
2019-06-08T07:19:00.481Z,20.41
2019-06-08T07:21:41.001Z,20.35
2019-06-08T07:23:58.834Z,20.39
2019-06-08T07:26:27.183Z,20.36
2019-06-08T07:28:55.631Z,20.35
2019-06-08T07:31:23.914Z,20.37
2019-06-08T07:33:53.511Z,20.24
2019-06-08T07:36:21.853Z,20.25
2019-06-08T07:38:51.313Z,20.34
2019-06-08T07:41:19.577Z,20.42
2019-06-08T07:43:48.009Z,20.44
2019-06-08T07:46:17.302Z,20.45
2019-06-08T07:48:45.734Z,20.52
2019-06-08T07:51:13.936Z,20.48
2019-06-08T07:53:42.148Z,20.36
2019-06-08T07:56:10.361Z,20.25
2019-06-08T07:58:38.588Z,20.11
2019-06-08T08:01:08.338Z,19.96
2019-06-08T08:03:36.690Z,19.96
2019-06-08T08:06:04.906Z,19.98
2019-06-08T08:08:33.127Z,19.89
2019-06-08T08:11:01.672Z,19.75
2019-06-08T08:13:29.931Z,19.68
2019-06-08T08:15:59.370Z,19.70
2019-06-08T08:18:28.095Z,19.67
2019-06-08T08:20:59.181Z,19.68
2019-06-08T08:23:27.415Z,19.77
2019-06-08T08:25:58.649Z,19.77
2019-06-08T08:28:27.892Z,19.64
2019-06-08T08:30:58.600Z,19.60
2019-06-08T08:33:27.681Z,19.63
2019-06-08T08:35:58.612Z,19.61
2019-06-08T08:38:27.267Z,19.55
2019-06-08T08:40:59.806Z,19.51
2019-06-08T08:43:27.841Z,19.45
2019-06-08T08:45:56.728Z,19.37
2019-06-08T08:48:29.359Z,19.26
2019-06-08T08:50:56.946Z,19.17
2019-06-08T08:53:27.874Z,19.09
2019-06-08T08:55:57.911Z,19.10
2019-06-08T08:58:25.397Z,19.25
2019-06-08T09:00:54.216Z,19.41
2019-06-08T09:03:29.769Z,19.47
2019-06-08T09:05:54.683Z,19.43
2019-06-08T09:08:23.573Z,19.37
2019-06-08T09:10:53.289Z,19.41
2019-06-08T09:13:21.599Z,19.51
2019-06-08T09:15:52.284Z,19.62
2019-06-08T09:18:19.763Z,19.73
2019-06-08T09:20:48.029Z,19.78
2019-06-08T09:23:21.437Z,19.78
2019-06-08T09:25:48.301Z,19.82
2019-06-08T09:28:18.655Z,19.85
2019-06-08T09:30:48.425Z,19.86
2019-06-08T09:33:18.593Z,19.80
2019-06-08T09:35:47.929Z,19.71
2019-06-08T09:38:18.610Z,19.55
2019-06-08T09:40:48.747Z,19.53
2019-06-08T09:43:18.703Z,19.56
2019-06-08T09:45:48.305Z,19.62
2019-06-08T09:48:18.204Z,19.73
2019-06-08T09:50:48.503Z,19.23
2019-06-08T09:53:26.969Z,19.82
2019-06-08T09:55:48.106Z,19.92
2019-06-08T09:58:18.122Z,20.05
2019-06-08T10:00:48.376Z,20.21
2019-06-08T10:03:18.406Z,20.40
2019-06-08T10:05:48.258Z,20.48
2019-06-08T10:08:20.334Z,20.35
2019-06-08T10:10:48.227Z,20.09
2019-06-08T10:13:18.712Z,19.90
2019-06-08T10:15:48.659Z,19.93
2019-06-08T10:18:17.645Z,20.03
2019-06-08T10:20:48.024Z,20.17
2019-06-08T10:23:30.259Z,20.45
2019-06-08T10:25:47.984Z,20.72
2019-06-08T10:28:20.890Z,20.75
2019-06-08T10:30:48.285Z,20.60
2019-06-08T10:33:15.387Z,20.43
2019-06-08T10:35:43.612Z,20.22
2019-06-08T10:38:12.176Z,20.03
2019-06-08T10:41:00.332Z,19.87
2019-06-08T10:43:28.886Z,19.81
2019-06-08T10:46:00.590Z,19.77
2019-06-08T10:48:28.564Z,19.70
2019-06-08T10:50:58.535Z,19.49
2019-06-08T10:53:28.599Z,19.29
2019-06-08T10:55:58.209Z,19.13
2019-06-08T10:58:28.358Z,19.02
2019-06-08T11:00:59.690Z,18.93
2019-06-08T11:03:30.374Z,18.82
2019-06-08T11:06:00.469Z,18.78
2019-06-08T11:08:27.520Z,18.79
2019-06-08T11:10:57.909Z,18.80
2019-06-08T11:13:28.126Z,18.93
2019-06-08T11:15:58.694Z,19.19
2019-06-08T11:18:28.515Z,19.31
2019-06-08T11:20:57.991Z,19.38
2019-06-08T11:23:25.697Z,19.42
2019-06-08T11:25:53.886Z,19.11
2019-06-08T11:28:22.119Z,19.46
2019-06-08T11:30:50.312Z,19.44
2019-06-08T11:33:18.564Z,19.43
2019-06-08T11:35:46.792Z,19.52
2019-06-08T11:38:17.580Z,19.57
2019-06-08T11:40:44.957Z,19.65
2019-06-08T11:43:13.171Z,19.78
2019-06-08T11:45:41.372Z,19.86
2019-06-08T11:48:10.855Z,20.00
2019-06-08T11:50:42.176Z,20.12
2019-06-08T11:53:14.201Z,20.14
2019-06-08T11:55:40.492Z,20.12
2019-06-08T11:58:11.869Z,20.09
2019-06-08T12:00:53.813Z,20.10
2019-06-08T12:03:21.385Z,20.17
2019-06-08T12:05:50.892Z,20.24
2019-06-08T12:08:20.904Z,20.22
2019-06-08T12:10:49.342Z,20.14
2019-06-08T12:13:17.918Z,19.89
2019-06-08T12:15:48.822Z,19.76
2019-06-08T12:18:18.178Z,19.75
2019-06-08T12:20:48.693Z,19.79
2019-06-08T12:23:16.469Z,19.87
2019-06-08T12:25:44.690Z,19.98
2019-06-08T12:28:12.902Z,20.13
2019-06-08T12:30:41.165Z,20.30
2019-06-08T12:33:10.882Z,20.31
2019-06-08T12:35:39.359Z,20.26
2019-06-08T12:38:09.656Z,20.32
2019-06-08T12:40:40.887Z,20.40
2019-06-08T12:43:09.978Z,20.44
2019-06-08T12:45:38.110Z,20.49
2019-06-08T12:48:08.847Z,20.58
2019-06-08T12:50:38.635Z,20.66
2019-06-08T12:53:12.439Z,20.76
2019-06-08T12:55:37.738Z,20.78
2019-06-08T12:58:08.114Z,20.68
2019-06-08T13:00:38.075Z,20.59
2019-06-08T13:03:08.203Z,20.61
2019-06-08T13:05:37.945Z,20.69
2019-06-08T13:08:08.415Z,20.85
2019-06-08T13:10:38.205Z,20.94
2019-06-08T13:13:08.050Z,20.96
2019-06-08T13:15:38.278Z,20.93
2019-06-08T13:18:05.681Z,20.81
2019-06-08T13:20:33.954Z,20.80
2019-06-08T13:23:02.180Z,20.77
2019-06-08T13:25:39.555Z,20.82
2019-06-08T13:28:00.346Z,20.87
2019-06-08T13:30:31.992Z,20.93
2019-06-08T13:32:58.722Z,20.91
2019-06-08T13:35:27.406Z,20.91
2019-06-08T13:37:57.690Z,20.82
2019-06-08T13:40:25.901Z,20.66
2019-06-08T13:42:54.147Z,20.55
2019-06-08T13:45:23.531Z,20.37
2019-06-08T13:47:51.815Z,20.23
2019-06-08T13:50:22.048Z,20.07
2019-06-08T13:52:50.213Z,19.95
2019-06-08T13:55:36.639Z,19.83
2019-06-08T13:57:49.146Z,19.71
2019-06-08T14:00:18.291Z,19.64
2019-06-08T14:02:48.360Z,19.58
2019-06-08T14:05:24.051Z,19.47
2019-06-08T14:07:49.953Z,19.38
2019-06-08T14:10:22.925Z,19.35
2019-06-08T14:12:51.420Z,19.33
2019-06-08T14:15:19.766Z,19.29
2019-06-08T14:17:47.980Z,19.28
2019-06-08T14:20:21.746Z,19.32
2019-06-08T14:22:50.541Z,19.34
2019-06-08T14:25:21.696Z,19.45
2019-06-08T14:27:48.793Z,19.52
2019-06-08T14:30:18.253Z,19.53
2019-06-08T14:32:47.863Z,19.49
2019-06-08T14:35:18.694Z,19.45
2019-06-08T14:37:48.130Z,19.46
2019-06-08T14:40:17.226Z,19.51
2019-06-08T14:42:45.513Z,19.62
2019-06-08T14:45:13.722Z,19.68
2019-06-08T14:47:41.935Z,19.69
2019-06-08T14:50:10.141Z,19.64
2019-06-08T14:52:38.369Z,19.67
2019-06-08T14:55:08.026Z,19.82
2019-06-08T14:57:37.469Z,20.00
2019-06-08T15:00:10.625Z,20.15
2019-06-08T15:02:37.931Z,20.28
2019-06-08T15:05:07.825Z,20.41
2019-06-08T15:07:38.677Z,20.54
2019-06-08T15:10:09.831Z,20.57
2019-06-08T15:12:38.401Z,20.54
2019-06-08T15:15:10.753Z,20.45
2019-06-08T15:17:37.972Z,20.31
2019-06-08T15:20:09.293Z,20.21
2019-06-08T15:22:38.849Z,20.31
2019-06-08T15:25:08.181Z,20.43
2019-06-08T15:27:38.904Z,20.53
2019-06-08T15:30:07.216Z,20.51
2019-06-08T15:32:38.453Z,20.45
2019-06-08T15:35:08.070Z,20.39
2019-06-08T15:37:40.482Z,20.28
2019-06-08T15:40:07.709Z,20.16
2019-06-08T15:42:36.012Z,20.14
2019-06-08T15:45:08.099Z,20.17
2019-06-08T15:47:35.508Z,20.17
2019-06-08T15:50:05.177Z,20.15
2019-06-08T15:52:34.328Z,20.15
2019-06-08T15:55:02.575Z,20.09
2019-06-08T15:57:35.713Z,20.05
2019-06-08T16:00:00.754Z,20.01
2019-06-08T16:02:29.459Z,19.95
2019-06-08T16:04:57.712Z,19.85
2019-06-08T16:07:28.525Z,19.81
2019-06-08T16:09:55.906Z,19.83
2019-06-08T16:12:24.313Z,19.86
2019-06-08T16:14:52.590Z,19.85
2019-06-08T16:17:22.722Z,19.83
2019-06-08T16:19:53.092Z,19.86
2019-06-08T16:22:20.998Z,19.91
2019-06-08T16:24:49.214Z,20.01
2019-06-08T16:27:17.425Z,20.05
2019-06-08T16:29:45.808Z,20.02
2019-06-08T16:32:14.036Z,19.96
2019-06-08T16:34:42.291Z,19.89
2019-06-08T16:37:10.500Z,19.80
2019-06-08T16:39:39.094Z,19.70
2019-06-08T16:42:07.302Z,19.52
2019-06-08T16:44:36.423Z,19.39
2019-06-08T16:47:04.724Z,19.29
2019-06-08T16:49:33.384Z,18.84
2019-06-08T16:52:01.638Z,19.16
2019-06-08T16:54:30.606Z,19.12
2019-06-08T16:57:09.480Z,19.08
2019-06-08T16:59:30.155Z,19.11
2019-06-08T17:01:58.416Z,19.10
2019-06-08T17:04:26.623Z,19.09
2019-06-08T17:06:54.841Z,19.08
2019-06-08T17:09:23.058Z,19.16
2019-06-08T17:14:38.379Z,18.98
2019-06-08T17:17:06.959Z,18.86
2019-06-08T17:19:36.250Z,18.86
2019-06-08T17:22:04.500Z,18.83
2019-06-08T17:24:32.720Z,18.75
2019-06-08T17:27:01.139Z,18.69
2019-06-08T17:29:30.639Z,18.66
2019-06-08T17:31:58.934Z,18.65
2019-06-08T17:34:27.143Z,18.63
2019-06-08T17:36:55.406Z,18.58
2019-06-08T17:39:23.613Z,18.53
2019-06-08T17:41:51.835Z,18.51
2019-06-08T17:44:20.034Z,18.53
2019-06-08T17:46:48.275Z,18.58
2019-06-08T17:49:16.480Z,18.64
2019-06-08T17:51:44.692Z,18.69
2019-06-08T17:54:12.928Z,18.74
2019-06-08T17:56:41.304Z,18.78
2019-06-08T17:59:09.624Z,18.79
2019-06-08T18:01:37.861Z,18.76
2019-06-08T18:04:08.060Z,18.68
2019-06-08T18:06:38.654Z,18.64
2019-06-08T18:09:07.895Z,18.60
2019-06-08T18:11:38.679Z,18.54
2019-06-08T18:14:07.430Z,18.53
2019-06-08T18:16:39.211Z,18.51
2019-06-08T18:19:07.934Z,18.51
2019-06-08T18:21:38.830Z,18.51
2019-06-08T18:24:07.679Z,18.50
2019-06-08T18:26:38.393Z,18.47
2019-06-08T18:29:07.796Z,18.46
2019-06-08T18:31:35.441Z,18.44
2019-06-08T18:34:05.437Z,18.42
2019-06-08T18:36:34.829Z,18.35
2019-06-08T18:39:04.536Z,18.24
2019-06-08T18:41:32.752Z,18.15
2019-06-08T18:44:01.830Z,18.07
2019-06-08T18:46:30.057Z,17.95
2019-06-08T18:48:58.333Z,17.85
2019-06-08T18:51:28.102Z,17.78
2019-06-08T18:54:10.443Z,17.73
2019-06-08T18:56:27.564Z,17.69
2019-06-08T18:58:58.174Z,17.65
2019-06-08T19:01:27.518Z,17.63
2019-06-08T19:03:57.946Z,17.62
2019-06-08T19:06:27.890Z,17.59
2019-06-08T19:08:57.892Z,17.56
2019-06-08T19:11:28.453Z,17.54
2019-06-08T19:13:57.906Z,17.48
2019-06-08T19:16:27.762Z,17.39
2019-06-08T19:18:57.955Z,17.32
2019-06-08T19:21:27.801Z,17.23
2019-06-08T19:23:55.405Z,17.12
2019-06-08T19:26:23.615Z,17.04
2019-06-08T19:28:53.899Z,16.93
2019-06-08T19:31:21.785Z,16.82
2019-06-08T19:33:53.497Z,16.69
2019-06-08T19:36:19.929Z,16.56
2019-06-08T19:38:54.439Z,16.47
2019-06-08T19:41:18.116Z,16.38
2019-06-08T19:43:53.235Z,16.30
2019-06-08T19:46:18.066Z,16.26
2019-06-08T19:48:53.289Z,16.23
2019-06-08T19:51:17.088Z,16.19
2019-06-08T19:53:49.267Z,16.17
2019-06-08T19:56:17.367Z,16.14
2019-06-08T19:58:58.437Z,16.09
2019-06-08T20:01:17.490Z,16.05
2019-06-08T20:03:45.217Z,15.99
2019-06-08T20:06:14.387Z,15.95
2019-06-08T20:08:43.015Z,15.93
2019-06-08T20:11:11.216Z,15.92
2019-06-08T20:13:39.426Z,15.92
2019-06-08T20:16:08.478Z,15.90
2019-06-08T20:18:37.569Z,15.86
2019-06-08T20:21:10.001Z,15.82
2019-06-08T20:23:38.060Z,15.76
2019-06-08T20:26:08.176Z,15.76
2019-06-08T20:28:37.280Z,15.75
2019-06-08T20:31:07.481Z,15.76
2019-06-08T20:33:37.688Z,15.73
2019-06-08T20:36:08.063Z,15.72
2019-06-08T20:38:39.750Z,15.74
2019-06-08T20:41:07.474Z,15.74
2019-06-08T20:43:38.097Z,15.73
2019-06-08T20:46:05.172Z,15.69
2019-06-08T20:48:33.432Z,15.63
2019-06-08T20:51:01.701Z,15.59
2019-06-08T20:53:29.898Z,15.54
2019-06-08T20:55:58.107Z,15.53
2019-06-08T20:58:28.292Z,15.52
2019-06-08T21:00:57.733Z,15.49
2019-06-08T21:03:27.978Z,15.50
2019-06-08T21:05:58.035Z,15.46
2019-06-08T21:08:28.031Z,15.46
2019-06-08T21:10:58.072Z,15.40
2019-06-08T21:13:27.475Z,15.35
2019-06-08T21:15:58.031Z,15.34
2019-06-08T21:18:27.613Z,15.32
2019-06-08T21:20:57.854Z,15.31
2019-06-08T21:23:27.673Z,15.31
2019-06-08T21:25:59.825Z,15.32
2019-06-08T21:28:27.815Z,15.32
2019-06-08T21:30:58.696Z,15.32
2019-06-08T21:33:25.211Z,15.31
2019-06-08T21:36:00.463Z,15.31
2019-06-08T21:38:24.541Z,15.30
2019-06-08T21:40:55.678Z,15.26
2019-06-08T21:43:22.727Z,15.20
2019-06-08T21:45:51.937Z,15.18
2019-06-08T21:48:20.873Z,15.17
2019-06-08T21:50:51.671Z,15.15
2019-06-08T21:53:19.051Z,15.13
2019-06-08T21:55:47.915Z,15.12
2019-06-08T21:58:17.820Z,15.09
2019-06-08T22:00:47.279Z,15.05
2019-06-08T22:03:17.576Z,15.03
2019-06-08T22:05:47.325Z,15.03
2019-06-08T22:08:17.333Z,15.01
2019-06-08T22:10:47.144Z,14.98
2019-06-08T22:13:17.556Z,14.96
2019-06-08T22:15:47.459Z,14.93
2019-06-08T22:18:18.297Z,14.91
2019-06-08T22:20:47.729Z,14.91
2019-06-08T22:23:17.883Z,14.89
2019-06-08T22:25:47.618Z,14.87
2019-06-08T22:28:17.566Z,14.86
2019-06-08T22:30:45.433Z,14.86
2019-06-08T22:33:13.703Z,14.87
2019-06-08T22:35:41.970Z,14.86
2019-06-08T22:38:10.197Z,14.84
2019-06-08T22:40:38.419Z,14.80
2019-06-08T22:43:08.079Z,14.06
2019-06-08T22:45:37.467Z,14.78
2019-06-08T22:48:08.283Z,14.76
2019-06-08T22:50:38.052Z,14.74
2019-06-08T22:53:07.981Z,14.73
2019-06-08T22:55:38.021Z,14.69
2019-06-08T22:58:07.681Z,14.66
2019-06-08T23:00:49.062Z,14.63
2019-06-08T23:03:08.653Z,14.59
2019-06-08T23:05:37.381Z,14.56
2019-06-08T23:08:07.029Z,14.53
2019-06-08T23:10:37.421Z,14.50
2019-06-08T23:13:07.838Z,14.49
2019-06-08T23:15:35.517Z,14.48
2019-06-08T23:18:04.605Z,14.47
2019-06-08T23:20:33.862Z,14.46
2019-06-08T23:23:03.051Z,14.43
2019-06-08T23:25:32.058Z,14.41
2019-06-08T23:28:00.343Z,14.38
2019-06-08T23:30:28.555Z,14.35
2019-06-08T23:33:00.646Z,14.33
2019-06-08T23:35:27.600Z,14.29
2019-06-08T23:37:56.818Z,14.27
2019-06-08T23:40:27.275Z,14.26
2019-06-08T23:42:55.237Z,14.22
2019-06-08T23:45:23.435Z,14.19
2019-06-08T23:47:51.672Z,14.19
2019-06-08T23:50:19.883Z,14.16
2019-06-08T23:52:48.086Z,14.15
2019-06-08T23:55:18.230Z,14.14
2019-06-08T23:57:46.271Z,14.11
